sensor_id;sensor_type;location;lat;lon;timestamp;temperature;humidity
7936;DHT22;4013;49.744;8.118;2023-11-22T05:31:47;3.50;99.90
7936;DHT22;4013;49.744;8.118;2023-11-22T05:34:14;3.40;99.90
7936;DHT22;4013;49.744;8.118;2023-11-22T05:36:43;3.40;99.90
7936;DHT22;4013;49.744;8.118;2023-11-22T05:39:10;3.50;99.90
7936;DHT22;4013;49.744;8.118;2023-11-22T05:41:37;3.60;99.90
7936;DHT22;4013;49.744;8.118;2023-11-22T05:44:04;3.60;99.90
7936;DHT22;4013;49.744;8.118;2023-11-22T05:46:33;3.70;99.90
7936;DHT22;4013;49.744;8.118;2023-11-22T05:49:01;3.60;99.90
7936;DHT22;4013;49.744;8.118;2023-11-22T05:51:28;3.60;99.90
7936;DHT22;4013;49.744;8.118;2023-11-22T05:53:55;3.70;99.90
7936;DHT22;4013;49.744;8.118;2023-11-22T05:56:21;3.60;99.90
7936;DHT22;4013;49.744;8.118;2023-11-22T05:58:49;3.40;99.90
7936;DHT22;4013;49.744;8.118;2023-11-22T06:01:15;3.50;99.90
7936;DHT22;4013;49.744;8.118;2023-11-22T06:03:42;3.50;99.90
7936;DHT22;4013;49.744;8.118;2023-11-22T06:06:11;3.50;99.90
7936;DHT22;4013;49.744;8.118;2023-11-22T06:08:39;3.60;99.90
7936;DHT22;4013;49.744;8.118;2023-11-22T06:11:05;3.60;99.90
7936;DHT22;4013;49.744;8.118;2023-11-22T06:13:33;3.60;99.90
7936;DHT22;4013;49.744;8.118;2023-11-22T06:16:00;3.50;99.90
7936;DHT22;4013;49.744;8.118;2023-11-22T06:18:27;3.50;99.90
7936;DHT22;4013;49.744;8.118;2023-11-22T06:20:55;3.40;99.90
7936;DHT22;4013;49.744;8.118;2023-11-22T06:23:23;3.40;99.90
7936;DHT22;4013;49.744;8.118;2023-11-22T06:25:50;3.30;99.90
7936;DHT22;4013;49.744;8.118;2023-11-22T06:28:17;3.40;99.90
7936;DHT22;4013;49.744;8.118;2023-11-22T06:30:44;3.40;99.90
7936;DHT22;4013;49.744;8.118;2023-11-22T06:33:11;3.40;99.90
7936;DHT22;4013;49.744;8.118;2023-11-22T06:35:38;3.40;99.90
7936;DHT22;4013;49.744;8.118;2023-11-22T06:38:05;3.40;99.90
7936;DHT22;4013;49.744;8.118;2023-11-22T06:40:34;3.40;99.90
7936;DHT22;4013;49.744;8.118;2023-11-22T06:43:02;3.30;99.90
7936;DHT22;4013;49.744;8.118;2023-11-22T06:45:29;3.20;99.90
7936;DHT22;4013;49.744;8.118;2023-11-22T06:47:57;3.10;99.90
7936;DHT22;4013;49.744;8.118;2023-11-22T06:50:24;3.10;99.90
7936;DHT22;4013;49.744;8.118;2023-11-22T06:52:51;3.10;99.90
7936;DHT22;4013;49.744;8.118;2023-11-22T06:55:18;3.10;99.90
7936;DHT22;4013;49.744;8.118;2023-11-22T06:57:47;3.20;99.90
7936;DHT22;4013;49.744;8.118;2023-11-22T07:00:14;3.20;99.90
7936;DHT22;4013;49.744;8.118;2023-11-22T07:02:42;3.10;99.90
7936;DHT22;4013;49.744;8.118;2023-11-22T07:05:08;3.10;99.90
7936;DHT22;4013;49.744;8.118;2023-11-22T07:07:34;3.10;99.90
7936;DHT22;4013;49.744;8.118;2023-11-22T07:10:01;3.00;99.90
7936;DHT22;4013;49.744;8.118;2023-11-22T07:12:30;3.10;99.90
7936;DHT22;4013;49.744;8.118;2023-11-22T07:14:59;3.10;99.90
7936;DHT22;4013;49.744;8.118;2023-11-22T07:17:25;3.10;99.90
7936;DHT22;4013;49.744;8.118;2023-11-22T07:19:54;3.00;99.90
7936;DHT22;4013;49.744;8.118;2023-11-22T07:22:21;3.10;99.90
7936;DHT22;4013;49.744;8.118;2023-11-22T07:24:48;3.10;99.90
7936;DHT22;4013;49.744;8.118;2023-11-22T07:27:16;3.20;99.90
7936;DHT22;4013;49.744;8.118;2023-11-22T07:29:44;3.20;99.90
7936;DHT22;4013;49.744;8.118;2023-11-22T07:32:12;3.00;99.90
7936;DHT22;4013;49.744;8.118;2023-11-22T07:34:40;3.10;99.90
7936;DHT22;4013;49.744;8.118;2023-11-22T07:37:07;3.00;99.90
7936;DHT22;4013;49.744;8.118;2023-11-22T07:39:34;2.90;99.90
7936;DHT22;4013;49.744;8.118;2023-11-22T07:42:03;2.80;99.90
7936;DHT22;4013;49.744;8.118;2023-11-22T07:44:33;2.80;99.90
7936;DHT22;4013;49.744;8.118;2023-11-22T07:47:01;2.80;99.90
7936;DHT22;4013;49.744;8.118;2023-11-22T07:49:29;2.80;99.90
7936;DHT22;4013;49.744;8.118;2023-11-22T07:51:56;2.70;99.90
7936;DHT22;4013;49.744;8.118;2023-11-22T07:54:23;2.70;99.90
7936;DHT22;4013;49.744;8.118;2023-11-22T07:56:50;2.70;99.90
7936;DHT22;4013;49.744;8.118;2023-11-22T07:59:17;2.80;99.90
7936;DHT22;4013;49.744;8.118;2023-11-22T08:01:44;2.90;99.90
7936;DHT22;4013;49.744;8.118;2023-11-22T08:04:13;2.80;99.90
7936;DHT22;4013;49.744;8.118;2023-11-22T08:06:42;2.70;99.90
7936;DHT22;4013;49.744;8.118;2023-11-22T08:09:09;2.70;99.90
7936;DHT22;4013;49.744;8.118;2023-11-22T08:11:36;2.70;99.90
7936;DHT22;4013;49.744;8.118;2023-11-22T08:14:03;2.60;99.90
7936;DHT22;4013;49.744;8.118;2023-11-22T08:16:31;2.60;99.90
7936;DHT22;4013;49.744;8.118;2023-11-22T08:18:57;2.60;99.90
7936;DHT22;4013;49.744;8.118;2023-11-22T08:21:24;2.60;99.90
7936;DHT22;4013;49.744;8.118;2023-11-22T08:23:53;2.70;99.90
7936;DHT22;4013;49.744;8.118;2023-11-22T08:26:19;2.70;99.90
7936;DHT22;4013;49.744;8.118;2023-11-22T08:28:46;2.70;99.90
7936;DHT22;4013;49.744;8.118;2023-11-22T08:31:13;2.80;99.90
7936;DHT22;4013;49.744;8.118;2023-11-22T08:33:42;2.60;99.90
7936;DHT22;4013;49.744;8.118;2023-11-22T08:36:09;2.70;99.90
7936;DHT22;4013;49.744;8.118;2023-11-22T08:38:35;2.70;99.90
7936;DHT22;4013;49.744;8.118;2023-11-22T08:41:07;2.70;99.90
7936;DHT22;4013;49.744;8.118;2023-11-22T08:43:34;2.90;99.90
7936;DHT22;4013;49.744;8.118;2023-11-22T08:46:01;3.10;99.90
7936;DHT22;4013;49.744;8.118;2023-11-22T08:48:30;3.00;99.90
7936;DHT22;4013;49.744;8.118;2023-11-22T08:50:57;3.00;99.90
7936;DHT22;4013;49.744;8.118;2023-11-22T08:53:24;2.90;99.90
7936;DHT22;4013;49.744;8.118;2023-11-22T08:55:51;2.90;99.90
7936;DHT22;4013;49.744;8.118;2023-11-22T08:58:21;2.90;99.90
7936;DHT22;4013;49.744;8.118;2023-11-22T09:00:49;2.80;99.90
7936;DHT22;4013;49.744;8.118;2023-11-22T09:03:16;2.90;99.90
7936;DHT22;4013;49.744;8.118;2023-11-22T09:05:44;2.90;99.90
7936;DHT22;4013;49.744;8.118;2023-11-22T09:08:11;3.00;99.90
7936;DHT22;4013;49.744;8.118;2023-11-22T09:10:40;3.10;99.90
7936;DHT22;4013;49.744;8.118;2023-11-22T09:13:07;3.00;99.90
7936;DHT22;4013;49.744;8.118;2023-11-22T09:15:37;3.00;99.90
7936;DHT22;4013;49.744;8.118;2023-11-22T09:18:04;3.00;99.90
7936;DHT22;4013;49.744;8.118;2023-11-22T09:20:31;2.90;99.90
7936;DHT22;4013;49.744;8.118;2023-11-22T09:22:58;3.00;99.90
7936;DHT22;4013;49.744;8.118;2023-11-22T09:25:25;3.00;99.90
7936;DHT22;4013;49.744;8.118;2023-11-22T09:27:54;3.10;99.90
7936;DHT22;4013;49.744;8.118;2023-11-22T09:30:24;3.10;99.90
7936;DHT22;4013;49.744;8.118;2023-11-22T09:33:05;3.00;99.90
7936;DHT22;4013;49.744;8.118;2023-11-22T09:35:32;3.10;99.90
7936;DHT22;4013;49.744;8.118;2023-11-22T09:38:00;3.10;99.90
7936;DHT22;4013;49.744;8.118;2023-11-22T09:40:28;3.10;99.90
7936;DHT22;4013;49.744;8.118;2023-11-22T09:42:57;3.00;99.90
7936;DHT22;4013;49.744;8.118;2023-11-22T09:45:25;2.90;99.90
7936;DHT22;4013;49.744;8.118;2023-11-22T09:47:52;3.00;99.90
7936;DHT22;4013;49.744;8.118;2023-11-22T09:50:21;3.20;99.90
7936;DHT22;4013;49.744;8.118;2023-11-22T09:52:50;3.20;99.90
7936;DHT22;4013;49.744;8.118;2023-11-22T09:55:19;3.20;99.90
7936;DHT22;4013;49.744;8.118;2023-11-22T09:57:47;3.20;99.90
7936;DHT22;4013;49.744;8.118;2023-11-22T10:00:15;3.20;99.90
7936;DHT22;4013;49.744;8.118;2023-11-22T10:02:44;3.20;99.90
7936;DHT22;4013;49.744;8.118;2023-11-22T10:05:11;3.10;99.90
7936;DHT22;4013;49.744;8.118;2023-11-22T10:07:39;3.20;99.90
7936;DHT22;4013;49.744;8.118;2023-11-22T10:10:07;3.10;99.90
7936;DHT22;4013;49.744;8.118;2023-11-22T10:12:36;3.00;99.90
7936;DHT22;4013;49.744;8.118;2023-11-22T10:15:15;3.00;99.90
7936;DHT22;4013;49.744;8.118;2023-11-22T10:17:47;3.20;99.90
7936;DHT22;4013;49.744;8.118;2023-11-22T10:20:14;3.30;99.90
7936;DHT22;4013;49.744;8.118;2023-11-22T10:22:46;3.50;99.90
7936;DHT22;4013;49.744;8.118;2023-11-22T10:25:14;3.40;99.90
7936;DHT22;4013;49.744;8.118;2023-11-22T10:27:44;3.30;99.90
7936;DHT22;4013;49.744;8.118;2023-11-22T10:30:11;3.30;99.90
7936;DHT22;4013;49.744;8.118;2023-11-22T10:32:38;3.20;99.90
7936;DHT22;4013;49.744;8.118;2023-11-22T10:35:05;3.30;99.90
7936;DHT22;4013;49.744;8.118;2023-11-22T10:37:33;3.40;99.90
7936;DHT22;4013;49.744;8.118;2023-11-22T10:40:01;3.40;99.90
7936;DHT22;4013;49.744;8.118;2023-11-22T10:42:30;3.20;99.90
7936;DHT22;4013;49.744;8.118;2023-11-22T10:44:57;3.20;99.90
7936;DHT22;4013;49.744;8.118;2023-11-22T10:47:27;3.20;99.90
7936;DHT22;4013;49.744;8.118;2023-11-22T10:49:55;3.10;99.90
7936;DHT22;4013;49.744;8.118;2023-11-22T10:52:22;3.00;99.90
7936;DHT22;4013;49.744;8.118;2023-11-22T10:54:55;3.10;99.90
7936;DHT22;4013;49.744;8.118;2023-11-22T10:57:25;3.10;99.90
7936;DHT22;4013;49.744;8.118;2023-11-22T10:59:53;3.20;99.90
7936;DHT22;4013;49.744;8.118;2023-11-22T11:02:21;3.20;99.90
7936;DHT22;4013;49.744;8.118;2023-11-22T11:04:49;3.20;99.90
7936;DHT22;4013;49.744;8.118;2023-11-22T11:07:17;3.30;99.90
7936;DHT22;4013;49.744;8.118;2023-11-22T11:09:48;3.40;99.90
7936;DHT22;4013;49.744;8.118;2023-11-22T11:12:16;3.40;99.90
7936;DHT22;4013;49.744;8.118;2023-11-22T11:14:45;3.50;99.90
7936;DHT22;4013;49.744;8.118;2023-11-22T11:17:12;3.40;99.90
7936;DHT22;4013;49.744;8.118;2023-11-22T11:19:40;3.50;99.90
7936;DHT22;4013;49.744;8.118;2023-11-22T11:22:07;3.40;99.90
7936;DHT22;4013;49.744;8.118;2023-11-22T11:24:38;3.30;99.90
7936;DHT22;4013;49.744;8.118;2023-11-22T11:27:05;3.20;99.90
7936;DHT22;4013;49.744;8.118;2023-11-22T11:29:33;3.20;99.90
7936;DHT22;4013;49.744;8.118;2023-11-22T11:32:03;3.20;99.90
7936;DHT22;4013;49.744;8.118;2023-11-22T11:34:31;3.30;99.90
7936;DHT22;4013;49.744;8.118;2023-11-22T11:36:59;3.30;99.90
7936;DHT22;4013;49.744;8.118;2023-11-22T11:39:26;3.40;99.90
7936;DHT22;4013;49.744;8.118;2023-11-22T11:42:08;3.50;99.90
7936;DHT22;4013;49.744;8.118;2023-11-22T11:44:35;3.40;99.90
7936;DHT22;4013;49.744;8.118;2023-11-22T11:47:10;3.20;99.90
7936;DHT22;4013;49.744;8.118;2023-11-22T11:49:37;3.10;99.90
7936;DHT22;4013;49.744;8.118;2023-11-22T11:52:04;3.20;99.90
7936;DHT22;4013;49.744;8.118;2023-11-22T11:54:31;3.30;99.90
7936;DHT22;4013;49.744;8.118;2023-11-22T11:56:58;3.40;99.90
7936;DHT22;4013;49.744;8.118;2023-11-22T11:59:26;3.50;99.90
7936;DHT22;4013;49.744;8.118;2023-11-22T12:01:53;3.50;99.90
7936;DHT22;4013;49.744;8.118;2023-11-22T12:04:23;3.60;99.90
7936;DHT22;4013;49.744;8.118;2023-11-22T12:06:51;3.70;99.90
7936;DHT22;4013;49.744;8.118;2023-11-22T12:09:22;3.50;99.90
7936;DHT22;4013;49.744;8.118;2023-11-22T12:11:49;3.40;99.90
7936;DHT22;4013;49.744;8.118;2023-11-22T12:14:16;3.50;99.90
7936;DHT22;4013;49.744;8.118;2023-11-22T12:16:44;3.60;99.90
7936;DHT22;4013;49.744;8.118;2023-11-22T12:19:20;3.50;99.90
7936;DHT22;4013;49.744;8.118;2023-11-22T12:21:49;3.40;99.90
7936;DHT22;4013;49.744;8.118;2023-11-22T12:24:15;3.70;99.90
7936;DHT22;4013;49.744;8.118;2023-11-22T12:26:44;3.70;99.90
7936;DHT22;4013;49.744;8.118;2023-11-22T12:29:11;3.80;99.90
7936;DHT22;4013;49.744;8.118;2023-11-22T12:31:43;3.70;99.90
7936;DHT22;4013;49.744;8.118;2023-11-22T12:34:12;3.70;99.90
7936;DHT22;4013;49.744;8.118;2023-11-22T12:36:40;3.80;99.90
7936;DHT22;4013;49.744;8.118;2023-11-22T12:39:08;3.90;99.90
7936;DHT22;4013;49.744;8.118;2023-11-22T12:41:41;4.00;99.90
7936;DHT22;4013;49.744;8.118;2023-11-22T12:44:08;4.00;99.90
7936;DHT22;4013;49.744;8.118;2023-11-22T12:46:45;3.90;99.90
7936;DHT22;4013;49.744;8.118;2023-11-22T12:49:14;4.10;99.90
7936;DHT22;4013;49.744;8.118;2023-11-22T12:51:45;3.90;99.90
7936;DHT22;4013;49.744;8.118;2023-11-22T12:54:13;3.80;99.90
7936;DHT22;4013;49.744;8.118;2023-11-22T12:56:40;3.80;99.90
7936;DHT22;4013;49.744;8.118;2023-11-22T12:59:07;3.80;99.90
7936;DHT22;4013;49.744;8.118;2023-11-22T13:01:34;3.80;99.90
7936;DHT22;4013;49.744;8.118;2023-11-22T13:04:01;3.60;99.90
7936;DHT22;4013;49.744;8.118;2023-11-22T13:06:28;3.50;99.90
7936;DHT22;4013;49.744;8.118;2023-11-22T13:08:56;3.60;99.90
7936;DHT22;4013;49.744;8.118;2023-11-22T13:11:24;3.70;99.90
7936;DHT22;4013;49.744;8.118;2023-11-22T13:13:51;4.10;99.90
7936;DHT22;4013;49.744;8.118;2023-11-22T13:16:18;4.70;99.90
7936;DHT22;4013;49.744;8.118;2023-11-22T13:18:44;5.40;99.90
7936;DHT22;4013;49.744;8.118;2023-11-22T13:21:11;6.00;99.90
7936;DHT22;4013;49.744;8.118;2023-11-22T13:23:39;6.30;99.90
7936;DHT22;4013;49.744;8.118;2023-11-22T13:26:05;6.10;99.90
7936;DHT22;4013;49.744;8.118;2023-11-22T13:28:36;5.50;99.90
7936;DHT22;4013;49.744;8.118;2023-11-22T13:31:03;5.00;99.90
7936;DHT22;4013;49.744;8.118;2023-11-22T13:33:30;5.00;99.90
7936;DHT22;4013;49.744;8.118;2023-11-22T13:35:57;4.70;99.90
7936;DHT22;4013;49.744;8.118;2023-11-22T13:38:23;4.60;99.90
7936;DHT22;4013;49.744;8.118;2023-11-22T13:40:50;4.40;99.90
7936;DHT22;4013;49.744;8.118;2023-11-22T13:43:17;4.30;99.90
7936;DHT22;4013;49.744;8.118;2023-11-22T13:45:47;4.10;99.90
7936;DHT22;4013;49.744;8.118;2023-11-22T13:48:15;3.90;99.90
7936;DHT22;4013;49.744;8.118;2023-11-22T13:50:42;3.80;99.90
7936;DHT22;4013;49.744;8.118;2023-11-22T13:53:10;3.80;99.90
7936;DHT22;4013;49.744;8.118;2023-11-22T13:55:37;3.80;99.90
7936;DHT22;4013;49.744;8.118;2023-11-22T13:58:04;3.70;99.90
7936;DHT22;4013;49.744;8.118;2023-11-22T14:00:33;3.70;99.90
7936;DHT22;4013;49.744;8.118;2023-11-22T14:03:02;3.70;99.90
7936;DHT22;4013;49.744;8.118;2023-11-22T14:05:31;3.90;99.90
7936;DHT22;4013;49.744;8.118;2023-11-22T14:07:58;3.80;99.90
7936;DHT22;4013;49.744;8.118;2023-11-22T14:10:26;3.80;99.90
7936;DHT22;4013;49.744;8.118;2023-11-22T14:12:52;3.80;99.90
7936;DHT22;4013;49.744;8.118;2023-11-22T14:15:19;3.80;99.90
7936;DHT22;4013;49.744;8.118;2023-11-22T14:17:46;3.80;99.90
7936;DHT22;4013;49.744;8.118;2023-11-22T14:20:18;3.80;99.90
7936;DHT22;4013;49.744;8.118;2023-11-22T14:22:46;3.80;99.90
7936;DHT22;4013;49.744;8.118;2023-11-22T14:25:13;3.70;99.90
7936;DHT22;4013;49.744;8.118;2023-11-22T14:27:41;3.60;99.90
7936;DHT22;4013;49.744;8.118;2023-11-22T14:30:08;3.70;99.90
7936;DHT22;4013;49.744;8.118;2023-11-22T14:32:37;3.80;99.90
7936;DHT22;4013;49.744;8.118;2023-11-22T14:35:04;3.80;99.90
7936;DHT22;4013;49.744;8.118;2023-11-22T14:37:32;3.80;99.90
7936;DHT22;4013;49.744;8.118;2023-11-22T14:39:59;3.90;99.90
7936;DHT22;4013;49.744;8.118;2023-11-22T14:42:26;3.90;99.90
7936;DHT22;4013;49.744;8.118;2023-11-22T14:44:53;3.90;99.90
7936;DHT22;4013;49.744;8.118;2023-11-22T14:47:20;3.80;99.90
7936;DHT22;4013;49.744;8.118;2023-11-22T14:49:50;3.80;99.90
7936;DHT22;4013;49.744;8.118;2023-11-22T14:52:17;3.80;99.90
7936;DHT22;4013;49.744;8.118;2023-11-22T14:54:46;3.80;99.90
7936;DHT22;4013;49.744;8.118;2023-11-22T14:57:13;3.70;99.90
7936;DHT22;4013;49.744;8.118;2023-11-22T14:59:42;3.70;99.90
7936;DHT22;4013;49.744;8.118;2023-11-22T15:02:10;3.70;99.90
7936;DHT22;4013;49.744;8.118;2023-11-22T15:04:37;3.70;99.90
7936;DHT22;4013;49.744;8.118;2023-11-22T15:07:04;3.50;99.90
7936;DHT22;4013;49.744;8.118;2023-11-22T15:09:32;3.60;99.90
7936;DHT22;4013;49.744;8.118;2023-11-22T15:12:01;3.60;99.90
7936;DHT22;4013;49.744;8.118;2023-11-22T15:14:29;3.70;99.90
7936;DHT22;4013;49.744;8.118;2023-11-22T15:16:56;3.70;99.90
7936;DHT22;4013;49.744;8.118;2023-11-22T15:19:23;3.70;99.90
7936;DHT22;4013;49.744;8.118;2023-11-22T15:21:53;3.70;99.90
7936;DHT22;4013;49.744;8.118;2023-11-22T15:24:19;3.60;99.90
7936;DHT22;4013;49.744;8.118;2023-11-22T15:26:46;3.40;99.90
7936;DHT22;4013;49.744;8.118;2023-11-22T15:29:15;3.50;99.90
7936;DHT22;4013;49.744;8.118;2023-11-22T15:31:42;3.50;99.90
7936;DHT22;4013;49.744;8.118;2023-11-22T15:34:10;3.60;99.90
7936;DHT22;4013;49.744;8.118;2023-11-22T15:36:37;3.60;99.90
7936;DHT22;4013;49.744;8.118;2023-11-22T15:39:04;3.60;99.90
7936;DHT22;4013;49.744;8.118;2023-11-22T15:41:31;3.60;99.90
7936;DHT22;4013;49.744;8.118;2023-11-22T15:43:58;3.60;99.90
7936;DHT22;4013;49.744;8.118;2023-11-22T15:46:26;3.60;99.90
7936;DHT22;4013;49.744;8.118;2023-11-22T15:48:54;3.50;99.90
7936;DHT22;4013;49.744;8.118;2023-11-22T15:51:21;3.40;99.90
7936;DHT22;4013;49.744;8.118;2023-11-22T15:53:48;3.40;99.90
7936;DHT22;4013;49.744;8.118;2023-11-22T15:56:15;3.50;99.90
7936;DHT22;4013;49.744;8.118;2023-11-22T15:58:42;3.50;99.90
7936;DHT22;4013;49.744;8.118;2023-11-22T16:01:09;3.50;99.90
7936;DHT22;4013;49.744;8.118;2023-11-22T16:03:38;3.40;99.90
7936;DHT22;4013;49.744;8.118;2023-11-22T16:06:05;3.20;99.90
7936;DHT22;4013;49.744;8.118;2023-11-22T16:08:34;3.20;99.90
7936;DHT22;4013;49.744;8.118;2023-11-22T16:11:01;3.30;99.90
7936;DHT22;4013;49.744;8.118;2023-11-22T16:13:28;3.20;99.90
7936;DHT22;4013;49.744;8.118;2023-11-22T16:15:55;3.20;99.90
7936;DHT22;4013;49.744;8.118;2023-11-22T16:18:24;3.20;99.90
7936;DHT22;4013;49.744;8.118;2023-11-22T16:20:54;3.20;99.90
7936;DHT22;4013;49.744;8.118;2023-11-22T16:23:21;3.20;99.90
7936;DHT22;4013;49.744;8.118;2023-11-22T16:25:48;3.20;99.90
7936;DHT22;4013;49.744;8.118;2023-11-22T16:28:15;3.30;99.90
7936;DHT22;4013;49.744;8.118;2023-11-22T16:30:42;3.30;99.90
7936;DHT22;4013;49.744;8.118;2023-11-22T16:33:09;3.10;99.90
7936;DHT22;4013;49.744;8.118;2023-11-22T16:35:36;3.00;99.90
7936;DHT22;4013;49.744;8.118;2023-11-22T16:38:05;3.00;99.90
7936;DHT22;4013;49.744;8.118;2023-11-22T16:40:32;3.20;99.90
7936;DHT22;4013;49.744;8.118;2023-11-22T16:42:59;3.10;99.90
7936;DHT22;4013;49.744;8.118;2023-11-22T16:45:26;3.10;99.90
7936;DHT22;4013;49.744;8.118;2023-11-22T16:47:53;3.20;99.90
7936;DHT22;4013;49.744;8.118;2023-11-22T16:50:22;3.10;99.90
7936;DHT22;4013;49.744;8.118;2023-11-22T16:52:49;3.10;99.90
7936;DHT22;4013;49.744;8.118;2023-11-22T16:55:19;3.00;99.90
7936;DHT22;4013;49.744;8.118;2023-11-22T16:57:46;2.90;99.90
7936;DHT22;4013;49.744;8.118;2023-11-22T17:00:13;2.90;99.90
7936;DHT22;4013;49.744;8.118;2023-11-22T17:02:44;2.70;99.90
7936;DHT22;4013;49.744;8.118;2023-11-22T17:05:11;2.70;99.90
7936;DHT22;4013;49.744;8.118;2023-11-22T17:07:38;2.70;99.90
7936;DHT22;4013;49.744;8.118;2023-11-22T17:10:05;2.70;99.90
7936;DHT22;4013;49.744;8.118;2023-11-22T17:12:34;2.70;99.90
7936;DHT22;4013;49.744;8.118;2023-11-22T17:15:01;2.60;99.90
7936;DHT22;4013;49.744;8.118;2023-11-22T17:17:28;2.60;99.90
7936;DHT22;4013;49.744;8.118;2023-11-22T17:19:55;2.60;99.90
7936;DHT22;4013;49.744;8.118;2023-11-22T17:22:22;2.50;99.90
7936;DHT22;4013;49.744;8.118;2023-11-22T17:24:52;2.50;99.90
7936;DHT22;4013;49.744;8.118;2023-11-22T17:27:19;2.40;99.90
7936;DHT22;4013;49.744;8.118;2023-11-22T17:29:47;2.50;99.90
7936;DHT22;4013;49.744;8.118;2023-11-22T17:32:16;2.50;99.90
7936;DHT22;4013;49.744;8.118;2023-11-22T17:34:43;2.50;99.90
7936;DHT22;4013;49.744;8.118;2023-11-22T17:37:10;2.60;99.90
7936;DHT22;4013;49.744;8.118;2023-11-22T17:39:36;2.70;99.90
7936;DHT22;4013;49.744;8.118;2023-11-22T17:42:03;2.80;99.90
7936;DHT22;4013;49.744;8.118;2023-11-22T17:44:30;2.80;99.90
7936;DHT22;4013;49.744;8.118;2023-11-22T17:46:59;2.80;99.90
7936;DHT22;4013;49.744;8.118;2023-11-22T17:49:26;2.80;99.90
7936;DHT22;4013;49.744;8.118;2023-11-22T17:51:53;2.80;99.90
7936;DHT22;4013;49.744;8.118;2023-11-22T17:54:20;2.70;99.90
7936;DHT22;4013;49.744;8.118;2023-11-22T17:56:47;2.80;99.90
7936;DHT22;4013;49.744;8.118;2023-11-22T17:59:14;2.80;99.90
7936;DHT22;4013;49.744;8.118;2023-11-22T18:01:40;2.80;99.90
7936;DHT22;4013;49.744;8.118;2023-11-22T18:04:09;2.80;99.90
7936;DHT22;4013;49.744;8.118;2023-11-22T18:06:36;2.80;99.90
7936;DHT22;4013;49.744;8.118;2023-11-22T18:09:03;2.80;99.90
7936;DHT22;4013;49.744;8.118;2023-11-22T18:11:30;2.70;99.90
7936;DHT22;4013;49.744;8.118;2023-11-22T18:13:57;2.80;99.90
7936;DHT22;4013;49.744;8.118;2023-11-22T18:16:26;2.70;99.90
7936;DHT22;4013;49.744;8.118;2023-11-22T18:18:53;2.80;99.90
7936;DHT22;4013;49.744;8.118;2023-11-22T18:21:22;2.80;99.90
7936;DHT22;4013;49.744;8.118;2023-11-22T18:23:49;2.90;99.90
7936;DHT22;4013;49.744;8.118;2023-11-22T18:26:16;2.80;99.90
7936;DHT22;4013;49.744;8.118;2023-11-22T18:28:42;2.80;99.90
7936;DHT22;4013;49.744;8.118;2023-11-22T18:31:09;2.80;99.90
7936;DHT22;4013;49.744;8.118;2023-11-22T18:33:39;2.90;99.90
7936;DHT22;4013;49.744;8.118;2023-11-22T18:36:06;2.80;99.90
7936;DHT22;4013;49.744;8.118;2023-11-22T18:38:35;2.80;99.90
7936;DHT22;4013;49.744;8.118;2023-11-22T18:41:02;2.80;99.90
7936;DHT22;4013;49.744;8.118;2023-11-22T18:43:29;2.80;99.90
7936;DHT22;4013;49.744;8.118;2023-11-22T18:45:56;2.90;99.90
7936;DHT22;4013;49.744;8.118;2023-11-22T18:48:28;2.70;99.90
7936;DHT22;4013;49.744;8.118;2023-11-22T18:50:55;2.70;99.90
7936;DHT22;4013;49.744;8.118;2023-11-22T18:53:22;2.60;99.90
7936;DHT22;4013;49.744;8.118;2023-11-22T18:55:51;2.60;99.90
7936;DHT22;4013;49.744;8.118;2023-11-22T18:58:18;2.60;99.90
7936;DHT22;4013;49.744;8.118;2023-11-22T19:00:46;2.60;99.90
7936;DHT22;4013;49.744;8.118;2023-11-22T19:03:14;2.70;99.90
7936;DHT22;4013;49.744;8.118;2023-11-22T19:05:40;2.70;99.90
7936;DHT22;4013;49.744;8.118;2023-11-22T19:08:08;2.80;99.90
7936;DHT22;4013;49.744;8.118;2023-11-22T19:10:35;2.80;99.90
7936;DHT22;4013;49.744;8.118;2023-11-22T19:13:03;2.80;99.90
7936;DHT22;4013;49.744;8.118;2023-11-22T19:15:40;2.80;99.90
7936;DHT22;4013;49.744;8.118;2023-11-22T19:18:07;2.70;99.90
7936;DHT22;4013;49.744;8.118;2023-11-22T19:20:34;2.70;99.90
7936;DHT22;4013;49.744;8.118;2023-11-22T19:23:01;2.80;99.90
7936;DHT22;4013;49.744;8.118;2023-11-22T19:25:29;2.70;99.90
7936;DHT22;4013;49.744;8.118;2023-11-22T19:27:57;2.80;99.90
7936;DHT22;4013;49.744;8.118;2023-11-22T19:30:26;2.80;99.90
7936;DHT22;4013;49.744;8.118;2023-11-22T19:32:52;2.80;99.90
7936;DHT22;4013;49.744;8.118;2023-11-22T19:35:19;2.80;99.90
7936;DHT22;4013;49.744;8.118;2023-11-22T19:37:47;2.90;99.90
7936;DHT22;4013;49.744;8.118;2023-11-22T19:40:14;2.90;99.90
7936;DHT22;4013;49.744;8.118;2023-11-22T19:42:41;2.80;99.90
7936;DHT22;4013;49.744;8.118;2023-11-22T19:45:09;2.80;99.90
7936;DHT22;4013;49.744;8.118;2023-11-22T19:47:38;2.80;99.90
7936;DHT22;4013;49.744;8.118;2023-11-22T19:50:07;2.80;99.90
7936;DHT22;4013;49.744;8.118;2023-11-22T19:52:34;2.90;99.90
7936;DHT22;4013;49.744;8.118;2023-11-22T19:55:02;2.90;99.90
7936;DHT22;4013;49.744;8.118;2023-11-22T19:57:31;2.90;99.90
7936;DHT22;4013;49.744;8.118;2023-11-22T19:59:57;2.90;99.90
7936;DHT22;4013;49.744;8.118;2023-11-22T20:02:24;2.90;99.90
7936;DHT22;4013;49.744;8.118;2023-11-22T20:04:53;2.80;99.90
7936;DHT22;4013;49.744;8.118;2023-11-22T20:07:20;2.70;99.90
7936;DHT22;4013;49.744;8.118;2023-11-22T20:09:46;2.70;99.90
7936;DHT22;4013;49.744;8.118;2023-11-22T20:12:13;2.70;99.90
7936;DHT22;4013;49.744;8.118;2023-11-22T20:14:40;2.70;99.90
7936;DHT22;4013;49.744;8.118;2023-11-22T20:17:07;2.60;99.90
7936;DHT22;4013;49.744;8.118;2023-11-22T20:19:37;2.60;99.90
7936;DHT22;4013;49.744;8.118;2023-11-22T20:22:05;2.60;99.90
7936;DHT22;4013;49.744;8.118;2023-11-22T20:24:32;2.50;99.90
7936;DHT22;4013;49.744;8.118;2023-11-22T20:26:59;2.40;99.90
7936;DHT22;4013;49.744;8.118;2023-11-22T20:29:26;2.50;99.90
7936;DHT22;4013;49.744;8.118;2023-11-22T20:31:53;2.40;99.90
7936;DHT22;4013;49.744;8.118;2023-11-22T20:34:20;2.50;99.90
7936;DHT22;4013;49.744;8.118;2023-11-22T20:36:47;2.60;99.90
7936;DHT22;4013;49.744;8.118;2023-11-22T20:39:16;2.50;99.90
7936;DHT22;4013;49.744;8.118;2023-11-22T20:41:45;2.50;99.90
7936;DHT22;4013;49.744;8.118;2023-11-22T20:44:12;2.40;99.90
7936;DHT22;4013;49.744;8.118;2023-11-22T20:46:40;2.30;99.90
7936;DHT22;4013;49.744;8.118;2023-11-22T20:49:07;2.30;99.90
7936;DHT22;4013;49.744;8.118;2023-11-22T20:51:34;2.40;99.90
7936;DHT22;4013;49.744;8.118;2023-11-22T20:54:01;2.40;99.90
7936;DHT22;4013;49.744;8.118;2023-11-22T20:56:29;2.40;99.90
7936;DHT22;4013;49.744;8.118;2023-11-22T20:58:57;2.40;99.90
7936;DHT22;4013;49.744;8.118;2023-11-22T21:01:24;2.50;99.90
7936;DHT22;4013;49.744;8.118;2023-11-22T21:03:51;2.40;99.90
7936;DHT22;4013;49.744;8.118;2023-11-22T21:06:17;2.50;99.90
7936;DHT22;4013;49.744;8.118;2023-11-22T21:08:45;2.50;99.90
7936;DHT22;4013;49.744;8.118;2023-11-22T21:11:12;2.60;99.90
7936;DHT22;4013;49.744;8.118;2023-11-22T21:13:41;2.50;99.90
7936;DHT22;4013;49.744;8.118;2023-11-22T21:16:08;2.60;99.90
7936;DHT22;4013;49.744;8.118;2023-11-22T21:18:35;2.50;99.90
7936;DHT22;4013;49.744;8.118;2023-11-22T21:21:03;2.40;99.90
7936;DHT22;4013;49.744;8.118;2023-11-22T21:23:30;2.40;99.90
7936;DHT22;4013;49.744;8.118;2023-11-22T21:25:57;2.40;99.90
7936;DHT22;4013;49.744;8.118;2023-11-22T21:28:24;2.40;99.90
7936;DHT22;4013;49.744;8.118;2023-11-22T21:30:52;2.50;99.90
7936;DHT22;4013;49.744;8.118;2023-11-22T21:33:19;2.50;99.90
7936;DHT22;4013;49.744;8.118;2023-11-22T21:35:46;2.50;99.90
7936;DHT22;4013;49.744;8.118;2023-11-22T21:38:12;2.50;99.90
7936;DHT22;4013;49.744;8.118;2023-11-22T21:40:40;2.50;99.90
7936;DHT22;4013;49.744;8.118;2023-11-22T21:43:07;2.50;99.90
7936;DHT22;4013;49.744;8.118;2023-11-22T21:45:34;2.60;99.90
7936;DHT22;4013;49.744;8.118;2023-11-22T21:48:02;2.60;99.90
7936;DHT22;4013;49.744;8.118;2023-11-22T21:50:30;2.60;99.90